createdAt,value
2022-08-30T00:04:10.499Z,0.8
2022-08-30T00:10:30.451Z,0.8
2022-08-30T00:16:53.520Z,1.1
2022-08-30T00:23:13.516Z,1.1
2022-08-30T00:29:36.453Z,0.6
2022-08-30T00:35:56.524Z,0.6
2022-08-30T00:42:19.466Z,1.5
2022-08-30T00:48:40.794Z,1.5
2022-08-30T00:55:02.484Z,1.9
2022-08-30T01:01:22.513Z,1.9
2022-08-30T01:07:45.519Z,0.3
2022-08-30T01:14:05.455Z,0.3
2022-08-30T01:20:28.483Z,0.6
2022-08-30T01:26:48.506Z,0.6
2022-08-30T01:33:11.670Z,0.1
2022-08-30T01:39:31.541Z,0.1
2022-08-30T01:45:54.534Z,0.9
2022-08-30T01:52:14.460Z,0.9
2022-08-30T01:58:37.510Z,0.9
2022-08-30T02:04:57.462Z,0.9
2022-08-30T02:11:20.499Z,1
2022-08-30T02:17:40.483Z,1
2022-08-30T02:24:03.461Z,1.2
2022-08-30T02:30:23.593Z,1.2
2022-08-30T02:36:46.455Z,0.7
2022-08-30T02:43:06.466Z,0.7
2022-08-30T02:49:33.391Z,0.3
2022-08-30T02:55:49.456Z,0.3
2022-08-30T03:02:12.513Z,1.2
2022-08-30T03:08:32.483Z,1.2
2022-08-30T03:14:55.480Z,0.7
2022-08-30T03:21:15.511Z,0.7
2022-08-30T03:27:38.510Z,1.2
2022-08-30T03:33:58.511Z,1.2
2022-08-30T03:40:21.521Z,0.3
2022-08-30T03:46:41.492Z,0.3
2022-08-30T03:53:04.527Z,1.9
2022-08-30T03:59:24.476Z,1.9
2022-08-30T04:22:49.915Z,2.4
2022-08-30T04:29:12.460Z,2.4
2022-08-30T04:35:32.495Z,2.4
2022-08-30T04:41:55.491Z,1.7
2022-08-30T04:48:15.473Z,1.7
2022-08-30T04:54:38.534Z,1
2022-08-30T05:00:58.542Z,1
2022-08-30T05:07:21.503Z,1.6
2022-08-30T05:13:41.488Z,1.6
2022-08-30T05:20:04.479Z,0.4
2022-08-30T05:26:25.212Z,0.4
2022-08-30T05:32:47.489Z,1.2
2022-08-30T05:39:07.509Z,1.2
2022-08-30T05:45:30.474Z,0.8
2022-08-30T05:51:50.485Z,0.8
2022-08-30T05:58:13.569Z,1.1
2022-08-30T06:04:33.475Z,1.1
2022-08-30T06:10:56.500Z,0.7
2022-08-30T06:17:16.501Z,0.7
2022-08-30T06:23:39.475Z,0.9
2022-08-30T06:29:59.517Z,0.9
2022-08-30T06:36:22.471Z,0.9
2022-08-30T06:42:42.521Z,0.9
2022-08-30T06:49:05.489Z,1.7
2022-08-30T06:55:25.478Z,1.7
2022-08-30T07:01:48.585Z,2
2022-08-30T07:08:08.472Z,2
2022-08-30T07:14:31.553Z,1.9
2022-08-30T07:20:51.483Z,1.9
2022-08-30T07:27:14.535Z,1.1
2022-08-30T07:33:34.489Z,1.1
2022-08-30T07:39:57.512Z,1.9
2022-08-30T07:46:17.610Z,1.9
2022-08-30T07:52:40.547Z,1.8
2022-08-30T07:59:00.512Z,1.8
2022-08-30T08:05:24.886Z,1.3
2022-08-30T08:11:43.523Z,1.3
2022-08-30T08:18:07.792Z,1.7
2022-08-30T08:24:27.470Z,1.7
2022-08-30T08:30:50.700Z,2.6
2022-08-30T08:37:10.471Z,2.6
2022-08-30T08:43:33.482Z,1.3
2022-08-30T08:49:53.514Z,1.3
2022-08-30T08:56:17.056Z,1.3
2022-08-30T09:02:36.867Z,1.3
2022-08-30T09:08:59.566Z,1.4
2022-08-30T09:15:19.476Z,1.4
2022-08-30T09:21:42.707Z,0.9
2022-08-30T09:28:02.483Z,0.9
2022-08-30T09:34:25.540Z,1.4
2022-08-30T09:40:45.843Z,1.4
2022-08-30T09:47:08.483Z,1.9
2022-08-30T10:09:38.548Z,2.4
2022-08-30T10:15:58.547Z,2.4
2022-08-30T10:22:21.520Z,1.5
2022-08-30T10:28:41.463Z,1.5
2022-08-30T10:35:04.488Z,0.3
2022-08-30T10:41:24.502Z,0.3
2022-08-30T10:47:47.473Z,2
2022-08-30T10:54:07.515Z,2
2022-08-30T11:00:30.494Z,1.9
2022-08-30T11:06:52.636Z,1.9
2022-08-30T11:13:13.485Z,1.2
2022-08-30T11:19:33.467Z,1.2
2022-08-30T11:25:57.824Z,1.4
2022-08-30T11:32:16.722Z,1.4
2022-08-30T11:38:39.503Z,1.3
2022-08-30T11:44:59.538Z,1.3
2022-08-30T11:51:22.605Z,0.8
2022-08-30T11:57:43.792Z,0.8
2022-08-30T12:04:06.479Z,1.2
2022-08-30T12:10:26.498Z,1.2
2022-08-30T12:16:49.558Z,2
2022-08-30T12:23:09.476Z,2
2022-08-30T12:29:32.523Z,2.5
2022-08-30T12:35:52.772Z,2.5
2022-08-30T12:42:17.854Z,0.9
2022-08-30T12:48:35.512Z,0.9
2022-08-30T12:54:58.477Z,1.2
2022-08-30T13:01:18.702Z,1.2
2022-08-30T13:07:41.476Z,2.4
2022-08-30T13:14:01.702Z,2.4
2022-08-30T13:20:24.486Z,1.5
2022-08-30T13:26:44.480Z,1.5
2022-08-30T13:33:07.525Z,0.6
2022-08-30T13:39:27.495Z,0.6
2022-08-30T13:45:50.550Z,1.1
2022-08-30T13:52:20.190Z,1.1
2022-08-30T13:58:33.472Z,0.7
2022-08-30T14:04:53.574Z,0.7
2022-08-30T14:11:18.340Z,3
2022-08-30T14:17:36.482Z,3
2022-08-30T14:23:59.707Z,1.9
2022-08-30T14:30:21.167Z,1.9
2022-08-30T14:36:42.521Z,0.6
2022-08-30T14:43:03.634Z,0.6
2022-08-30T14:49:26.508Z,1.4
2022-08-30T14:55:46.504Z,1.4
2022-08-30T15:02:09.473Z,1.5
2022-08-30T15:08:29.506Z,1.5
2022-08-30T15:14:52.486Z,1.4
2022-08-30T15:21:12.587Z,1.4
2022-08-30T15:27:35.504Z,1.3
2022-08-30T15:33:55.467Z,1.3
2022-08-30T15:40:18.569Z,2.1
2022-08-30T15:46:38.490Z,2.1
2022-08-30T15:53:01.520Z,1.4
2022-08-30T16:10:02.097Z,1.4
2022-08-30T16:16:24.068Z,3.7
2022-08-30T16:22:45.817Z,3.7
2022-08-30T16:29:07.116Z,3.7
2022-08-30T16:35:26.533Z,3.7
2022-08-30T16:41:49.491Z,2.3
2022-08-30T16:48:09.511Z,2.3
2022-08-30T16:54:32.476Z,1.6
2022-08-30T17:00:52.672Z,1.6
2022-08-30T17:07:18.501Z,1.4
2022-08-30T17:13:35.533Z,1.4
2022-08-30T17:19:58.499Z,2.5
2022-08-30T17:26:18.473Z,2.5
2022-08-30T17:32:41.549Z,1.8
2022-08-30T17:39:02.279Z,1.8
2022-08-30T17:45:24.511Z,2.1
2022-08-30T17:51:44.504Z,2.1
2022-08-30T17:58:07.499Z,1.3
2022-08-30T18:04:27.492Z,1.3
2022-08-30T18:10:50.465Z,1.4
2022-08-30T18:17:10.534Z,1.4
2022-08-30T18:23:33.468Z,1.6
2022-08-30T18:29:53.516Z,1.6
2022-08-30T18:36:16.477Z,1.6
2022-08-30T18:42:36.457Z,1.6
2022-08-30T18:48:59.509Z,1.8
2022-08-30T18:55:19.505Z,1.8
2022-08-30T19:01:42.571Z,2.5
2022-08-30T19:08:02.539Z,2.5
2022-08-30T19:14:28.016Z,1.1
2022-08-30T19:20:45.594Z,1.1
2022-08-30T19:27:08.523Z,1.3
2022-08-30T19:33:28.894Z,1.3
2022-08-30T19:39:51.480Z,1.9
2022-08-30T19:46:11.502Z,1.9
2022-08-30T19:52:34.514Z,3
2022-08-30T19:58:54.463Z,3
2022-08-30T20:05:17.513Z,1.2
2022-08-30T20:11:37.499Z,1.2
2022-08-30T20:24:20.705Z,1.2
2022-08-30T20:30:43.498Z,1.5
2022-08-30T20:37:03.508Z,1.5
2022-08-30T20:43:26.489Z,2
2022-08-30T20:49:46.476Z,2
2022-08-30T20:56:09.532Z,2
2022-08-30T21:02:29.517Z,2
2022-08-30T21:08:52.512Z,0.9
2022-08-30T21:15:27.247Z,0.9
2022-08-30T21:21:35.454Z,1.3
2022-08-30T21:27:55.559Z,1.3
2022-08-30T21:34:18.478Z,1.5
2022-08-30T21:51:01.135Z,0.6
2022-08-30T21:57:24.045Z,3.1
2022-08-30T22:22:54.505Z,3
2022-08-30T22:29:14.463Z,3
2022-08-30T22:35:37.478Z,3
2022-08-30T22:41:57.472Z,3
2022-08-30T22:48:20.467Z,2.7
2022-08-30T22:54:40.504Z,2.7
2022-08-30T23:01:03.482Z,2.8
2022-08-30T23:07:23.536Z,2.8
2022-08-30T23:13:46.491Z,2.5
2022-08-30T23:20:06.470Z,2.5
2022-08-30T23:26:29.501Z,1.9
2022-08-30T23:32:49.456Z,1.9
2022-08-30T23:39:12.478Z,1.5
2022-08-30T23:45:32.556Z,1.5
2022-08-30T23:51:55.491Z,0.8
2022-08-30T23:58:15.503Z,0.8
